Weather observations for the past three days for
Terre Haute Regional Airport
Imperial (Metric)
Date Time (edt) Wind (mph) Vis. (mi.) Weather Sky Cond. Temperature (ºF) Relative Humidity Wind Chill (°F) Heat Index (°F) Pressure Precipitation (in)
Air Dwpt 6 hour altimeter (in) sea level (mb) 1 hr 3 hr 6 hr
Max. Min.
03 16:53 SW 7 10.00 Partly Cloudy SCT060 96.1 71.1 44% 104 29.95 1013.4
03 15:53 S 8 10.00 A Few Clouds FEW070 96.1 72 46% 105 29.96 1014.0
03 14:53 W 6 10.00 Fair CLR 96.1 73 48% 106 29.98 1014.7
03 13:53 W 9 10.00 Fair CLR 95 72 95 72 47% 103 29.99 1015.0
03 11:53 SW 8 10.00 Fair CLR 91 73.9 57% 101 30.02 1016.0
03 10:53 SW 8 10.00 Fair CLR 87.1 73.9 65% 95 30.02 1015.8
03 09:53 SW 6 10.00 Fair CLR 84 73 70% 90 30.02 1016.0
03 08:53 Calm 10.00 Fair CLR 79 73 82% 82 30.03 1016.4
03 07:53 Calm 10.00 Fair CLR 72 71.1 75.9 71.1 97% 30.03 1016.3
03 06:53 Calm 10.00 Fair CLR 71.1 71.1 100% 30.02 1015.8
03 05:53 Calm 10.00 Fair CLR 72 71.1 97% 30.01 1015.6
03 04:53 Calm 10.00 Fair CLR 72 71.1 97% 30.01 1015.5
03 03:53 SE 3 10.00 Fair CLR 73 71.1 94% 30 1015.4
03 02:53 Calm 10.00 Fair CLR 75 71.1 88% 75 30 1015.4
03 01:53 Calm 10.00 Fair CLR 75.9 71.1 89.1 75 85% 76 30.01 1015.4
03 00:53 S 3 10.00 Fair CLR 75.9 73 91% 76 29.99 1015.0
02 23:53 Calm 10.00 Fair CLR 75.9 75 97% 75 29.99 1014.8
02 22:53 Calm 10.00 Partly Cloudy SCT085 79 75.9 90% 83 29.99 1014.9
02 21:53 Calm 10.00 Mostly Cloudy BKN085 80.1 78.1 94% 86 29.98 1014.7
02 20:53 Calm 10.00 A Few Clouds FEW075 81 78.1 91% 89 29.97 1014.3
02 19:53 S 5 10.00 Fair CLR 89.1 77 96.1 89.1 68% 102 29.97 1014.2
02 18:53 S 5 10.00 A Few Clouds FEW070 93 75 56% 104 29.97 1014.2
02 17:53 S 5 10.00 Mostly Cloudy SCT070 BKN085 BKN110 91.9 75 58% 103 29.98 1014.5
02 16:53 SW 7 10.00 Fair CLR 95 72 47% 103 29.99 1014.8
02 15:53 SW 5 10.00 A Few Clouds FEW065 96.1 72 46% 105 30 1015.4
02 14:53 SW 9 10.00 Fair CLR 96.1 72 46% 105 30.02 1015.9
02 13:53 W 12 10.00 Fair CLR 93.9 73 93.9 72 51% 103 30.03 1016.2
02 12:53 W 13 10.00 Fair CLR 91.9 73 54% 101 30.05 1016.8
02 11:53 SW 8 10.00 Fair CLR 90 73.9 59% 99 30.05 1017.0
02 10:53 SW 9 10.00 Fair CLR 87.1 75 67% 97 30.05 1017.0
02 09:53 SW 6 10.00 Fair CLR 82.9 73 72% 89 30.06 1017.2
02 08:53 S 3 10.00 Fair CLR 78.1 73 85% 81 30.06 1017.4
02 07:53 SE 3 9.00 Fair CLR 72 70 75 70 94% 30.06 1017.4
02 06:53 Calm 10.00 Fair CLR 71.1 70 96% 30.05 1017.0
02 05:53 SE 3 10.00 Fair CLR 72 70 94% 30.04 1016.5
02 04:53 Calm 10.00 Fair CLR 72 70 94% 30.03 1016.4
02 03:53 Calm 10.00 Fair CLR 73 71.1 94% 30.03 1016.2
02 02:53 Calm 10.00 Fair CLR 72 72 100% 30.03 1016.2
02 01:53 Calm 10.00 Fair CLR 75 72 87.1 73.9 90% 74 30.03 1016.1
02 00:53 Calm 10.00 Fair CLR 75 72 90% 74 30.02 1016.0
01 23:53 S 3 10.00 Fair CLR 79 72 79% 82 30.02 1016.1
01 22:53 Calm 10.00 Fair CLR 78.1 75 90% 81 30.02 1016.1
01 21:53 Calm 10.00 Fair CLR 78.1 75.9 93% 81 30.01 1015.8
01 20:53 Calm 10.00 Fair CLR 79 77 94% 83 30 1015.3
01 19:53 Calm 10.00 Fair CLR 87.1 77 97 87.1 72% 99 30 1015.2
01 18:53 S 5 10.00 Fair CLR 93 73 52% 102 30 1015.3
01 17:53 S 7 10.00 Fair CLR 95 72 47% 103 30 1015.2
01 16:53 SW 9 10.00 Fair CLR 96.1 70 43% 103 30 1015.3
01 15:53 SW 7 10.00 Fair CLR 97 71.1 43% 105 30.01 1015.6
01 14:53 SW 8 10.00 Fair CLR 95 71.1 46% 102 30.03 1016.2
01 13:53 SW 9 10.00 Fair CLR 93.9 72 93.9 73.9 49% 102 30.04 1016.6
01 12:53 SW 10 10.00 Fair CLR 91.9 72 52% 100 30.05 1017.1
01 11:53 SW 9 10.00 Fair CLR 89.1 73 59% 97 30.06 1017.3
01 10:53 SW 9 10.00 Fair CLR 86 73 65% 93 30.06 1017.4
01 09:53 SW 7 10.00 Fair CLR 82 72 72% 87 30.06 1017.5
01 08:53 S 7 10.00 Fair CLR 78.1 71.1 79% 80 30.07 1017.7
01 07:53 S 3 10.00 Fair CLR 73.9 70 78.1 73 88% 30.05 1017.0
01 06:53 SW 6 10.00 Fair CLR 73.9 70 88% 30.04 1016.7
01 05:53 SW 5 10.00 Fair CLR 73.9 70 88% 30.04 1016.4
01 04:53 SW 5 10.00 Fair CLR 75 70 84% 75 30.03 1016.4
01 03:53 SW 5 10.00 Fair CLR 75.9 70 82% 77 30.03 1016.4
01 02:53 S 6 10.00 Fair CLR 77 70 79% 79 30.03 1016.2
01 01:53 SW 6 10.00 Fair CLR 78.1 71.1 87.1 75.9 79% 80 30.04 1016.5
01 00:53 S 7 10.00 Fair CLR 78.1 71.1 79% 80 30.03 1016.2
31 23:53 S 6 10.00 Fair CLR 79 71.1 77% 82 30.03 1016.2
31 22:53 S 5 10.00 Fair CLR 79 71.1 77% 82 30.03 1016.3
31 21:53 S 6 10.00 Fair CLR 80.1 71.1 74% 84 30.02 1015.9
31 20:53 S 7 10.00 Fair CLR 81 72 74% 85 30 1015.4
31 19:53 S 6 10.00 Fair CLR 87.1 72 93 87.1 61% 94 30 1015.3
31 18:53 S 7 10.00 Fair CLR 91 69.1 49% 96 30 1015.5
31 17:53 SW 7 10.00 Fair CLR 91.9 68 46% 96 30 1015.5
Date Time (edt) Wind (mph) Vis. (mi.) Weather Sky Cond. Air Dwpt Max. Min. Relative Humidity Wind Chill (°F) Heat Index (°F) altimeter (in) sea level (mb) 1 hr 3 hr 6 hr
6 hour
Temperature (ºF) Pressure Precipitation (in)